sensor_id;sensor_type;location;lat;lon;timestamp;P1;durP1;ratioP1;P2;durP2;ratioP2
1154;SDS011;566;48.414;9.118;2023-02-22T00:00:39;12.88;;;4.47;;
1154;SDS011;566;48.414;9.118;2023-02-22T00:03:10;9.63;;;4.38;;
1154;SDS011;566;48.414;9.118;2023-02-22T00:05:39;8.82;;;4.28;;
1154;SDS011;566;48.414;9.118;2023-02-22T00:08:05;7.00;;;3.92;;
1154;SDS011;566;48.414;9.118;2023-02-22T00:10:35;6.88;;;3.72;;
1154;SDS011;566;48.414;9.118;2023-02-22T00:13:02;6.53;;;3.65;;
1154;SDS011;566;48.414;9.118;2023-02-22T00:15:32;8.05;;;3.70;;
1154;SDS011;566;48.414;9.118;2023-02-22T00:17:58;5.68;;;3.10;;
1154;SDS011;566;48.414;9.118;2023-02-22T00:20:23;7.75;;;3.53;;
1154;SDS011;566;48.414;9.118;2023-02-22T00:22:49;6.05;;;3.15;;
1154;SDS011;566;48.414;9.118;2023-02-22T00:25:16;8.48;;;3.20;;
1154;SDS011;566;48.414;9.118;2023-02-22T00:27:43;6.88;;;3.40;;
1154;SDS011;566;48.414;9.118;2023-02-22T00:30:16;7.15;;;3.88;;
1154;SDS011;566;48.414;9.118;2023-02-22T00:32:44;7.10;;;3.47;;
1154;SDS011;566;48.414;9.118;2023-02-22T00:35:10;10.93;;;4.45;;
1154;SDS011;566;48.414;9.118;2023-02-22T00:37:37;9.43;;;4.20;;
1154;SDS011;566;48.414;9.118;2023-02-22T00:40:09;8.65;;;4.78;;
1154;SDS011;566;48.414;9.118;2023-02-22T00:42:36;8.05;;;4.25;;
1154;SDS011;566;48.414;9.118;2023-02-22T00:45:02;7.88;;;4.22;;
1154;SDS011;566;48.414;9.118;2023-02-22T00:47:28;7.22;;;3.88;;
1154;SDS011;566;48.414;9.118;2023-02-22T00:49:54;7.65;;;4.70;;
1154;SDS011;566;48.414;9.118;2023-02-22T00:52:20;8.60;;;4.00;;
1154;SDS011;566;48.414;9.118;2023-02-22T00:54:45;6.72;;;4.05;;
1154;SDS011;566;48.414;9.118;2023-02-22T00:57:11;6.47;;;3.88;;
1154;SDS011;566;48.414;9.118;2023-02-22T00:59:37;8.45;;;4.30;;
1154;SDS011;566;48.414;9.118;2023-02-22T01:02:02;8.07;;;4.10;;
1154;SDS011;566;48.414;9.118;2023-02-22T01:04:28;8.57;;;4.25;;
1154;SDS011;566;48.414;9.118;2023-02-22T01:06:54;7.88;;;4.47;;
1154;SDS011;566;48.414;9.118;2023-02-22T01:09:20;8.82;;;4.78;;
1154;SDS011;566;48.414;9.118;2023-02-22T01:11:46;9.05;;;4.68;;
1154;SDS011;566;48.414;9.118;2023-02-22T01:14:19;9.10;;;4.40;;
1154;SDS011;566;48.414;9.118;2023-02-22T01:16:45;8.70;;;3.95;;
1154;SDS011;566;48.414;9.118;2023-02-22T01:19:10;7.32;;;4.43;;
1154;SDS011;566;48.414;9.118;2023-02-22T01:21:36;7.82;;;3.67;;
1154;SDS011;566;48.414;9.118;2023-02-22T01:24:03;7.80;;;3.58;;
1154;SDS011;566;48.414;9.118;2023-02-22T01:26:29;8.40;;;3.58;;
1154;SDS011;566;48.414;9.118;2023-02-22T01:28:54;7.65;;;3.70;;
1154;SDS011;566;48.414;9.118;2023-02-22T01:31:22;5.95;;;3.50;;
1154;SDS011;566;48.414;9.118;2023-02-22T01:33:48;8.02;;;4.10;;
1154;SDS011;566;48.414;9.118;2023-02-22T01:36:15;6.95;;;3.70;;
1154;SDS011;566;48.414;9.118;2023-02-22T01:38:42;6.25;;;3.58;;
1154;SDS011;566;48.414;9.118;2023-02-22T01:41:09;10.65;;;3.92;;
1154;SDS011;566;48.414;9.118;2023-02-22T01:43:35;6.32;;;3.38;;
1154;SDS011;566;48.414;9.118;2023-02-22T01:46:02;7.72;;;3.38;;
1154;SDS011;566;48.414;9.118;2023-02-22T01:51:15;5.63;;;3.30;;
1154;SDS011;566;48.414;9.118;2023-02-22T01:53:51;6.43;;;3.30;;
1154;SDS011;566;48.414;9.118;2023-02-22T01:56:18;5.72;;;3.00;;
1154;SDS011;566;48.414;9.118;2023-02-22T01:58:47;6.63;;;3.00;;
1154;SDS011;566;48.414;9.118;2023-02-22T02:01:18;6.72;;;3.30;;
1154;SDS011;566;48.414;9.118;2023-02-22T02:03:46;7.53;;;3.45;;
1154;SDS011;566;48.414;9.118;2023-02-22T02:06:14;5.80;;;2.85;;
1154;SDS011;566;48.414;9.118;2023-02-22T02:11:17;4.93;;;2.70;;
1154;SDS011;566;48.414;9.118;2023-02-22T02:13:47;5.97;;;2.88;;
1154;SDS011;566;48.414;9.118;2023-02-22T02:16:14;5.82;;;2.78;;
1154;SDS011;566;48.414;9.118;2023-02-22T02:18:40;5.50;;;2.95;;
1154;SDS011;566;48.414;9.118;2023-02-22T02:27:13;5.00;;;2.60;;
1154;SDS011;566;48.414;9.118;2023-02-22T02:32:22;6.40;;;2.90;;
1154;SDS011;566;48.414;9.118;2023-02-22T02:35:07;5.88;;;3.15;;
1154;SDS011;566;48.414;9.118;2023-02-22T02:43:08;8.65;;;3.25;;
1154;SDS011;566;48.414;9.118;2023-02-22T02:45:49;6.57;;;2.97;;
1154;SDS011;566;48.414;9.118;2023-02-22T02:48:22;6.35;;;3.67;;
1154;SDS011;566;48.414;9.118;2023-02-22T02:50:51;7.07;;;3.20;;
1154;SDS011;566;48.414;9.118;2023-02-22T02:53:33;7.63;;;3.22;;
1154;SDS011;566;48.414;9.118;2023-02-22T02:56:04;6.15;;;3.67;;
1154;SDS011;566;48.414;9.118;2023-02-22T02:58:31;7.03;;;3.10;;
1154;SDS011;566;48.414;9.118;2023-02-22T03:00:59;5.82;;;3.00;;
1154;SDS011;566;48.414;9.118;2023-02-22T03:03:35;5.10;;;2.72;;
1154;SDS011;566;48.414;9.118;2023-02-22T03:06:09;6.30;;;2.72;;
1154;SDS011;566;48.414;9.118;2023-02-22T03:08:44;7.15;;;4.00;;
1154;SDS011;566;48.414;9.118;2023-02-22T03:11:18;7.53;;;3.83;;
1154;SDS011;566;48.414;9.118;2023-02-22T03:14:01;6.70;;;4.03;;
1154;SDS011;566;48.414;9.118;2023-02-22T03:22:06;5.80;;;3.33;;
1154;SDS011;566;48.414;9.118;2023-02-22T03:27:25;5.05;;;2.70;;
1154;SDS011;566;48.414;9.118;2023-02-22T03:29:52;5.43;;;3.10;;
1154;SDS011;566;48.414;9.118;2023-02-22T03:32:24;5.38;;;2.65;;
1154;SDS011;566;48.414;9.118;2023-02-22T03:34:58;5.63;;;2.88;;
1154;SDS011;566;48.414;9.118;2023-02-22T03:37:32;5.68;;;2.83;;
1154;SDS011;566;48.414;9.118;2023-02-22T03:40:02;4.43;;;2.20;;
1154;SDS011;566;48.414;9.118;2023-02-22T03:42:39;4.07;;;2.15;;
1154;SDS011;566;48.414;9.118;2023-02-22T03:45:12;4.72;;;2.28;;
1154;SDS011;566;48.414;9.118;2023-02-22T03:47:40;6.28;;;2.22;;
1154;SDS011;566;48.414;9.118;2023-02-22T03:50:17;5.32;;;2.20;;
1154;SDS011;566;48.414;9.118;2023-02-22T03:52:43;4.10;;;2.20;;
1154;SDS011;566;48.414;9.118;2023-02-22T03:55:11;5.47;;;2.10;;
1154;SDS011;566;48.414;9.118;2023-02-22T03:57:39;4.15;;;2.15;;
1154;SDS011;566;48.414;9.118;2023-02-22T04:00:08;5.97;;;2.30;;
1154;SDS011;566;48.414;9.118;2023-02-22T04:02:36;5.43;;;2.00;;
1154;SDS011;566;48.414;9.118;2023-02-22T04:05:02;3.85;;;2.00;;
1154;SDS011;566;48.414;9.118;2023-02-22T04:07:28;4.07;;;1.83;;
1154;SDS011;566;48.414;9.118;2023-02-22T04:09:53;7.47;;;2.03;;
1154;SDS011;566;48.414;9.118;2023-02-22T04:12:21;5.07;;;1.90;;
1154;SDS011;566;48.414;9.118;2023-02-22T04:14:47;4.97;;;2.10;;
1154;SDS011;566;48.414;9.118;2023-02-22T04:17:16;6.60;;;2.08;;
1154;SDS011;566;48.414;9.118;2023-02-22T04:19:41;5.45;;;1.92;;
1154;SDS011;566;48.414;9.118;2023-02-22T04:22:10;4.30;;;1.88;;
1154;SDS011;566;48.414;9.118;2023-02-22T04:24:36;3.55;;;1.98;;
1154;SDS011;566;48.414;9.118;2023-02-22T04:27:02;4.70;;;1.90;;
1154;SDS011;566;48.414;9.118;2023-02-22T04:29:27;4.75;;;2.25;;
1154;SDS011;566;48.414;9.118;2023-02-22T04:31:54;3.75;;;1.92;;
1154;SDS011;566;48.414;9.118;2023-02-22T04:34:19;5.65;;;2.08;;
1154;SDS011;566;48.414;9.118;2023-02-22T04:36:45;4.03;;;1.90;;
1154;SDS011;566;48.414;9.118;2023-02-22T04:39:11;4.90;;;2.00;;
1154;SDS011;566;48.414;9.118;2023-02-22T04:41:37;6.80;;;2.10;;
1154;SDS011;566;48.414;9.118;2023-02-22T04:44:02;5.15;;;1.98;;
1154;SDS011;566;48.414;9.118;2023-02-22T04:46:28;5.32;;;2.78;;
1154;SDS011;566;48.414;9.118;2023-02-22T04:48:55;4.97;;;2.10;;
1154;SDS011;566;48.414;9.118;2023-02-22T04:51:22;5.93;;;2.40;;
1154;SDS011;566;48.414;9.118;2023-02-22T04:53:50;3.05;;;1.90;;
1154;SDS011;566;48.414;9.118;2023-02-22T04:56:18;5.82;;;2.30;;
1154;SDS011;566;48.414;9.118;2023-02-22T04:58:47;3.95;;;1.92;;
1154;SDS011;566;48.414;9.118;2023-02-22T05:01:17;3.85;;;1.90;;
1154;SDS011;566;48.414;9.118;2023-02-22T05:03:45;4.45;;;1.95;;
1154;SDS011;566;48.414;9.118;2023-02-22T05:06:10;5.13;;;2.78;;
1154;SDS011;566;48.414;9.118;2023-02-22T05:08:36;3.70;;;1.95;;
1154;SDS011;566;48.414;9.118;2023-02-22T05:11:04;5.10;;;2.00;;
1154;SDS011;566;48.414;9.118;2023-02-22T05:13:32;4.05;;;1.92;;
1154;SDS011;566;48.414;9.118;2023-02-22T05:15:58;4.55;;;2.33;;
1154;SDS011;566;48.414;9.118;2023-02-22T05:18:24;4.45;;;2.00;;
1154;SDS011;566;48.414;9.118;2023-02-22T05:20:49;4.45;;;2.00;;
1154;SDS011;566;48.414;9.118;2023-02-22T05:23:15;4.65;;;2.35;;
1154;SDS011;566;48.414;9.118;2023-02-22T05:25:41;4.68;;;2.08;;
1154;SDS011;566;48.414;9.118;2023-02-22T05:28:07;6.15;;;2.28;;
1154;SDS011;566;48.414;9.118;2023-02-22T05:30:37;5.95;;;2.35;;
1154;SDS011;566;48.414;9.118;2023-02-22T05:33:06;6.95;;;2.33;;
1154;SDS011;566;48.414;9.118;2023-02-22T05:35:35;5.07;;;2.17;;
1154;SDS011;566;48.414;9.118;2023-02-22T05:38:01;5.63;;;2.95;;
1154;SDS011;566;48.414;9.118;2023-02-22T05:40:28;4.82;;;1.85;;
1154;SDS011;566;48.414;9.118;2023-02-22T05:42:54;5.40;;;1.90;;
1154;SDS011;566;48.414;9.118;2023-02-22T05:45:23;5.60;;;2.03;;
1154;SDS011;566;48.414;9.118;2023-02-22T05:47:50;6.63;;;2.35;;
1154;SDS011;566;48.414;9.118;2023-02-22T05:50:17;7.15;;;1.80;;
1154;SDS011;566;48.414;9.118;2023-02-22T05:52:43;5.38;;;1.90;;
1154;SDS011;566;48.414;9.118;2023-02-22T05:55:10;5.22;;;2.40;;
1154;SDS011;566;48.414;9.118;2023-02-22T05:57:41;5.68;;;2.30;;
1154;SDS011;566;48.414;9.118;2023-02-22T06:00:07;4.78;;;2.17;;
1154;SDS011;566;48.414;9.118;2023-02-22T06:02:39;4.47;;;2.40;;
1154;SDS011;566;48.414;9.118;2023-02-22T06:05:05;6.22;;;2.67;;
1154;SDS011;566;48.414;9.118;2023-02-22T06:07:31;5.05;;;2.67;;
1154;SDS011;566;48.414;9.118;2023-02-22T06:09:56;3.88;;;1.95;;
1154;SDS011;566;48.414;9.118;2023-02-22T06:12:22;4.68;;;1.90;;
1154;SDS011;566;48.414;9.118;2023-02-22T06:14:48;3.65;;;2.00;;
1154;SDS011;566;48.414;9.118;2023-02-22T06:17:14;3.90;;;1.80;;
1154;SDS011;566;48.414;9.118;2023-02-22T06:19:40;5.32;;;2.20;;
1154;SDS011;566;48.414;9.118;2023-02-22T06:22:06;7.03;;;2.40;;
1154;SDS011;566;48.414;9.118;2023-02-22T06:24:32;4.93;;;2.50;;
1154;SDS011;566;48.414;9.118;2023-02-22T06:26:59;5.85;;;2.50;;
1154;SDS011;566;48.414;9.118;2023-02-22T06:29:26;7.55;;;3.10;;
1154;SDS011;566;48.414;9.118;2023-02-22T06:31:52;5.55;;;2.67;;
1154;SDS011;566;48.414;9.118;2023-02-22T06:34:18;6.22;;;2.72;;
1154;SDS011;566;48.414;9.118;2023-02-22T06:36:46;4.28;;;2.38;;
1154;SDS011;566;48.414;9.118;2023-02-22T06:39:13;4.78;;;2.40;;
1154;SDS011;566;48.414;9.118;2023-02-22T06:41:40;5.50;;;3.08;;
1154;SDS011;566;48.414;9.118;2023-02-22T06:44:06;5.15;;;2.85;;
1154;SDS011;566;48.414;9.118;2023-02-22T06:46:35;7.13;;;4.18;;
1154;SDS011;566;48.414;9.118;2023-02-22T06:49:01;7.40;;;4.00;;
1154;SDS011;566;48.414;9.118;2023-02-22T06:51:27;7.75;;;4.18;;
1154;SDS011;566;48.414;9.118;2023-02-22T06:53:53;8.18;;;4.03;;
1154;SDS011;566;48.414;9.118;2023-02-22T06:56:19;6.00;;;3.30;;
1154;SDS011;566;48.414;9.118;2023-02-22T06:58:45;10.85;;;4.50;;
1154;SDS011;566;48.414;9.118;2023-02-22T07:01:10;7.80;;;4.47;;
1154;SDS011;566;48.414;9.118;2023-02-22T07:03:36;7.05;;;3.80;;
1154;SDS011;566;48.414;9.118;2023-02-22T07:06:02;8.73;;;3.67;;
1154;SDS011;566;48.414;9.118;2023-02-22T07:08:31;23.17;;;10.55;;
1154;SDS011;566;48.414;9.118;2023-02-22T07:10:57;10.63;;;5.13;;
1154;SDS011;566;48.414;9.118;2023-02-22T07:13:22;20.15;;;7.80;;
1154;SDS011;566;48.414;9.118;2023-02-22T07:15:48;40.38;;;14.93;;
1154;SDS011;566;48.414;9.118;2023-02-22T07:18:17;30.05;;;11.73;;
1154;SDS011;566;48.414;9.118;2023-02-22T07:20:42;32.33;;;14.77;;
1154;SDS011;566;48.414;9.118;2023-02-22T07:23:08;40.42;;;17.90;;
1154;SDS011;566;48.414;9.118;2023-02-22T07:25:33;26.50;;;13.15;;
1154;SDS011;566;48.414;9.118;2023-02-22T07:27:59;26.17;;;12.45;;
1154;SDS011;566;48.414;9.118;2023-02-22T07:30:29;21.25;;;10.50;;
1154;SDS011;566;48.414;9.118;2023-02-22T07:32:58;47.08;;;22.30;;
1154;SDS011;566;48.414;9.118;2023-02-22T07:35:26;27.65;;;12.65;;
1154;SDS011;566;48.414;9.118;2023-02-22T07:37:53;33.13;;;13.52;;
1154;SDS011;566;48.414;9.118;2023-02-22T07:40:19;31.17;;;13.15;;
1154;SDS011;566;48.414;9.118;2023-02-22T07:45:25;39.03;;;18.50;;
1154;SDS011;566;48.414;9.118;2023-02-22T07:47:52;24.63;;;10.57;;
1154;SDS011;566;48.414;9.118;2023-02-22T07:50:19;38.50;;;16.00;;
1154;SDS011;566;48.414;9.118;2023-02-22T07:52:48;44.50;;;16.17;;
1154;SDS011;566;48.414;9.118;2023-02-22T07:55:16;26.98;;;11.25;;
1154;SDS011;566;48.414;9.118;2023-02-22T07:57:46;16.95;;;9.50;;
1154;SDS011;566;48.414;9.118;2023-02-22T08:00:13;17.23;;;9.23;;
1154;SDS011;566;48.414;9.118;2023-02-22T08:02:44;18.52;;;9.80;;
1154;SDS011;566;48.414;9.118;2023-02-22T08:05:10;13.45;;;7.97;;
1154;SDS011;566;48.414;9.118;2023-02-22T08:07:36;15.60;;;8.75;;
1154;SDS011;566;48.414;9.118;2023-02-22T08:10:03;20.95;;;10.38;;
1154;SDS011;566;48.414;9.118;2023-02-22T08:12:31;19.20;;;10.55;;
1154;SDS011;566;48.414;9.118;2023-02-22T08:14:57;18.73;;;9.43;;
1154;SDS011;566;48.414;9.118;2023-02-22T08:17:23;18.90;;;8.70;;
1154;SDS011;566;48.414;9.118;2023-02-22T08:19:48;17.20;;;8.48;;
1154;SDS011;566;48.414;9.118;2023-02-22T08:22:14;32.33;;;12.02;;
1154;SDS011;566;48.414;9.118;2023-02-22T08:24:39;26.33;;;10.70;;
1154;SDS011;566;48.414;9.118;2023-02-22T08:27:05;19.58;;;8.88;;
1154;SDS011;566;48.414;9.118;2023-02-22T08:29:30;24.45;;;11.85;;
1154;SDS011;566;48.414;9.118;2023-02-22T08:31:58;20.30;;;13.55;;
1154;SDS011;566;48.414;9.118;2023-02-22T08:34:24;24.35;;;13.25;;
1154;SDS011;566;48.414;9.118;2023-02-22T08:36:50;17.52;;;9.75;;
1154;SDS011;566;48.414;9.118;2023-02-22T08:39:16;15.73;;;9.48;;
1154;SDS011;566;48.414;9.118;2023-02-22T08:41:41;15.55;;;8.60;;
1154;SDS011;566;48.414;9.118;2023-02-22T08:44:09;11.95;;;7.43;;
1154;SDS011;566;48.414;9.118;2023-02-22T08:46:37;15.48;;;6.95;;
1154;SDS011;566;48.414;9.118;2023-02-22T08:49:03;14.55;;;6.65;;
1154;SDS011;566;48.414;9.118;2023-02-22T08:51:33;12.20;;;6.63;;
1154;SDS011;566;48.414;9.118;2023-02-22T08:54:02;15.75;;;8.52;;
1154;SDS011;566;48.414;9.118;2023-02-22T08:56:28;16.75;;;9.05;;
1154;SDS011;566;48.414;9.118;2023-02-22T08:58:54;22.27;;;9.90;;
1154;SDS011;566;48.414;9.118;2023-02-22T09:01:21;21.70;;;9.60;;
1154;SDS011;566;48.414;9.118;2023-02-22T09:03:48;22.35;;;9.40;;
1154;SDS011;566;48.414;9.118;2023-02-22T09:06:14;30.50;;;9.48;;
1154;SDS011;566;48.414;9.118;2023-02-22T09:08:40;37.28;;;10.52;;
1154;SDS011;566;48.414;9.118;2023-02-22T09:11:09;23.13;;;7.85;;
1154;SDS011;566;48.414;9.118;2023-02-22T09:13:34;18.98;;;7.93;;
1154;SDS011;566;48.414;9.118;2023-02-22T09:16:00;25.73;;;8.18;;
1154;SDS011;566;48.414;9.118;2023-02-22T09:18:26;22.85;;;7.70;;
1154;SDS011;566;48.414;9.118;2023-02-22T09:20:52;15.73;;;8.32;;
1154;SDS011;566;48.414;9.118;2023-02-22T09:23:20;12.63;;;6.82;;
1154;SDS011;566;48.414;9.118;2023-02-22T09:25:46;14.68;;;7.25;;
1154;SDS011;566;48.414;9.118;2023-02-22T09:28:13;13.55;;;7.25;;
1154;SDS011;566;48.414;9.118;2023-02-22T09:30:39;11.25;;;6.18;;
1154;SDS011;566;48.414;9.118;2023-02-22T09:33:06;15.15;;;5.82;;
1154;SDS011;566;48.414;9.118;2023-02-22T09:35:36;12.50;;;6.85;;
1154;SDS011;566;48.414;9.118;2023-02-22T09:38:06;14.32;;;6.10;;
1154;SDS011;566;48.414;9.118;2023-02-22T09:40:33;17.80;;;6.60;;
1154;SDS011;566;48.414;9.118;2023-02-22T09:43:31;15.45;;;6.55;;
1154;SDS011;566;48.414;9.118;2023-02-22T09:46:20;17.38;;;6.30;;
1154;SDS011;566;48.414;9.118;2023-02-22T09:49:04;68.20;;;11.98;;
1154;SDS011;566;48.414;9.118;2023-02-22T09:54:09;13.23;;;5.07;;
1154;SDS011;566;48.414;9.118;2023-02-22T09:56:41;10.98;;;4.38;;
1154;SDS011;566;48.414;9.118;2023-02-22T09:59:10;7.40;;;4.38;;
1154;SDS011;566;48.414;9.118;2023-02-22T10:01:40;8.82;;;3.65;;
1154;SDS011;566;48.414;9.118;2023-02-22T10:04:19;6.20;;;3.50;;
1154;SDS011;566;48.414;9.118;2023-02-22T10:09:36;8.20;;;3.33;;
1154;SDS011;566;48.414;9.118;2023-02-22T10:18:14;9.10;;;3.90;;
1154;SDS011;566;48.414;9.118;2023-02-22T10:24:02;10.77;;;4.70;;
1154;SDS011;566;48.414;9.118;2023-02-22T10:26:43;11.90;;;4.47;;
1154;SDS011;566;48.414;9.118;2023-02-22T10:31:44;11.10;;;4.72;;
1154;SDS011;566;48.414;9.118;2023-02-22T10:34:15;10.95;;;5.03;;
1154;SDS011;566;48.414;9.118;2023-02-22T10:36:45;14.32;;;6.50;;
1154;SDS011;566;48.414;9.118;2023-02-22T10:39:27;16.15;;;5.47;;
1154;SDS011;566;48.414;9.118;2023-02-22T10:44:30;7.70;;;4.20;;
1154;SDS011;566;48.414;9.118;2023-02-22T10:47:04;9.73;;;5.10;;
1154;SDS011;566;48.414;9.118;2023-02-22T10:49:45;8.75;;;4.07;;
1154;SDS011;566;48.414;9.118;2023-02-22T10:54:55;6.53;;;3.47;;
1154;SDS011;566;48.414;9.118;2023-02-22T10:57:32;4.60;;;2.40;;
1154;SDS011;566;48.414;9.118;2023-02-22T11:02:53;7.70;;;3.08;;
1154;SDS011;566;48.414;9.118;2023-02-22T11:05:29;7.88;;;3.35;;
1154;SDS011;566;48.414;9.118;2023-02-22T11:08:25;7.93;;;3.55;;
1154;SDS011;566;48.414;9.118;2023-02-22T11:10:55;7.18;;;3.28;;
1154;SDS011;566;48.414;9.118;2023-02-22T11:15:52;6.47;;;3.65;;
1154;SDS011;566;48.414;9.118;2023-02-22T11:18:23;6.32;;;3.42;;
1154;SDS011;566;48.414;9.118;2023-02-22T11:20:57;10.52;;;6.95;;
1154;SDS011;566;48.414;9.118;2023-02-22T11:23:24;10.27;;;6.40;;
1154;SDS011;566;48.414;9.118;2023-02-22T11:25:50;10.73;;;6.65;;
1154;SDS011;566;48.414;9.118;2023-02-22T11:28:27;10.75;;;6.95;;
1154;SDS011;566;48.414;9.118;2023-02-22T11:33:50;9.77;;;5.50;;
1154;SDS011;566;48.414;9.118;2023-02-22T11:38:56;9.18;;;5.75;;
1154;SDS011;566;48.414;9.118;2023-02-22T11:41:28;9.98;;;6.38;;
1154;SDS011;566;48.414;9.118;2023-02-22T11:44:10;11.63;;;6.90;;
1154;SDS011;566;48.414;9.118;2023-02-22T11:46:46;10.55;;;6.70;;
1154;SDS011;566;48.414;9.118;2023-02-22T11:49:12;11.02;;;6.70;;
1154;SDS011;566;48.414;9.118;2023-02-22T11:57:26;13.75;;;7.30;;
1154;SDS011;566;48.414;9.118;2023-02-22T12:00:12;13.10;;;7.47;;
1154;SDS011;566;48.414;9.118;2023-02-22T12:05:56;19.48;;;10.45;;
1154;SDS011;566;48.414;9.118;2023-02-22T12:08:35;14.13;;;9.02;;
1154;SDS011;566;48.414;9.118;2023-02-22T12:11:15;15.25;;;9.60;;
1154;SDS011;566;48.414;9.118;2023-02-22T12:13:47;13.48;;;8.80;;
1154;SDS011;566;48.414;9.118;2023-02-22T12:23:30;13.35;;;8.35;;
1154;SDS011;566;48.414;9.118;2023-02-22T12:31:30;16.52;;;10.27;;
1154;SDS011;566;48.414;9.118;2023-02-22T12:36:33;16.35;;;10.20;;
1154;SDS011;566;48.414;9.118;2023-02-22T12:39:26;14.38;;;8.75;;
1154;SDS011;566;48.414;9.118;2023-02-22T12:41:55;22.00;;;9.48;;
1154;SDS011;566;48.414;9.118;2023-02-22T12:44:25;14.40;;;8.43;;
1154;SDS011;566;48.414;9.118;2023-02-22T12:46:56;14.57;;;8.50;;
1154;SDS011;566;48.414;9.118;2023-02-22T12:49:39;11.15;;;7.05;;
1154;SDS011;566;48.414;9.118;2023-02-22T12:52:14;11.13;;;6.88;;
1154;SDS011;566;48.414;9.118;2023-02-22T12:55:20;10.15;;;6.55;;
1154;SDS011;566;48.414;9.118;2023-02-22T12:58:47;11.52;;;6.32;;
1154;SDS011;566;48.414;9.118;2023-02-22T13:01:16;15.20;;;7.63;;
1154;SDS011;566;48.414;9.118;2023-02-22T13:03:45;13.82;;;7.03;;
1154;SDS011;566;48.414;9.118;2023-02-22T13:06:34;11.23;;;6.80;;
1154;SDS011;566;48.414;9.118;2023-02-22T13:12:04;14.25;;;7.10;;
1154;SDS011;566;48.414;9.118;2023-02-22T13:14:58;13.95;;;6.50;;
1154;SDS011;566;48.414;9.118;2023-02-22T13:17:53;13.57;;;6.60;;
1154;SDS011;566;48.414;9.118;2023-02-22T13:20:27;13.43;;;7.00;;
1154;SDS011;566;48.414;9.118;2023-02-22T13:26:04;15.95;;;6.50;;
1154;SDS011;566;48.414;9.118;2023-02-22T13:34:05;13.52;;;6.57;;
1154;SDS011;566;48.414;9.118;2023-02-22T13:42:23;11.68;;;5.65;;
1154;SDS011;566;48.414;9.118;2023-02-22T13:53:55;9.63;;;5.97;;
1154;SDS011;566;48.414;9.118;2023-02-22T13:56:25;11.68;;;5.70;;
1154;SDS011;566;48.414;9.118;2023-02-22T13:58:55;11.88;;;5.45;;
1154;SDS011;566;48.414;9.118;2023-02-22T14:01:41;9.52;;;5.57;;
1154;SDS011;566;48.414;9.118;2023-02-22T14:04:17;10.98;;;5.60;;
1154;SDS011;566;48.414;9.118;2023-02-22T14:17:35;10.02;;;5.95;;
1154;SDS011;566;48.414;9.118;2023-02-22T14:20:05;10.32;;;5.45;;
1154;SDS011;566;48.414;9.118;2023-02-22T14:22:46;10.55;;;5.95;;
1154;SDS011;566;48.414;9.118;2023-02-22T14:25:36;10.57;;;5.90;;
1154;SDS011;566;48.414;9.118;2023-02-22T14:28:05;10.95;;;5.88;;
1154;SDS011;566;48.414;9.118;2023-02-22T14:30:35;10.68;;;6.07;;
1154;SDS011;566;48.414;9.118;2023-02-22T14:33:03;11.90;;;6.18;;
1154;SDS011;566;48.414;9.118;2023-02-22T14:36:06;13.90;;;6.95;;
1154;SDS011;566;48.414;9.118;2023-02-22T14:38:31;12.43;;;6.63;;
1154;SDS011;566;48.414;9.118;2023-02-22T14:40:59;10.00;;;5.88;;
1154;SDS011;566;48.414;9.118;2023-02-22T14:43:26;14.32;;;6.60;;
1154;SDS011;566;48.414;9.118;2023-02-22T14:45:52;12.45;;;6.35;;
1154;SDS011;566;48.414;9.118;2023-02-22T14:48:26;12.55;;;6.90;;
1154;SDS011;566;48.414;9.118;2023-02-22T14:51:11;12.68;;;6.10;;
1154;SDS011;566;48.414;9.118;2023-02-22T14:53:44;12.70;;;7.03;;
1154;SDS011;566;48.414;9.118;2023-02-22T15:01:44;12.90;;;6.82;;
1154;SDS011;566;48.414;9.118;2023-02-22T15:04:19;12.07;;;6.30;;
1154;SDS011;566;48.414;9.118;2023-02-22T15:06:53;17.02;;;6.75;;
1154;SDS011;566;48.414;9.118;2023-02-22T15:09:39;12.88;;;6.50;;
1154;SDS011;566;48.414;9.118;2023-02-22T15:14:32;13.10;;;6.68;;
1154;SDS011;566;48.414;9.118;2023-02-22T15:17:06;13.05;;;7.00;;
1154;SDS011;566;48.414;9.118;2023-02-22T15:19:46;14.10;;;7.05;;
1154;SDS011;566;48.414;9.118;2023-02-22T15:22:23;14.15;;;7.75;;
1154;SDS011;566;48.414;9.118;2023-02-22T15:25:05;12.65;;;7.57;;
1154;SDS011;566;48.414;9.118;2023-02-22T15:27:32;13.88;;;7.30;;
1154;SDS011;566;48.414;9.118;2023-02-22T15:30:24;13.68;;;7.05;;
1154;SDS011;566;48.414;9.118;2023-02-22T15:32:50;13.73;;;7.40;;
1154;SDS011;566;48.414;9.118;2023-02-22T15:38:00;17.13;;;6.78;;
1154;SDS011;566;48.414;9.118;2023-02-22T15:40:35;13.93;;;7.18;;
1154;SDS011;566;48.414;9.118;2023-02-22T15:43:02;14.40;;;7.95;;
1154;SDS011;566;48.414;9.118;2023-02-22T15:45:32;14.77;;;7.22;;
1154;SDS011;566;48.414;9.118;2023-02-22T15:47:58;15.07;;;8.70;;
1154;SDS011;566;48.414;9.118;2023-02-22T15:50:31;16.00;;;7.38;;
1154;SDS011;566;48.414;9.118;2023-02-22T15:52:59;12.77;;;7.75;;
1154;SDS011;566;48.414;9.118;2023-02-22T15:55:44;12.38;;;6.93;;
1154;SDS011;566;48.414;9.118;2023-02-22T15:58:21;12.10;;;6.60;;
1154;SDS011;566;48.414;9.118;2023-02-22T16:01:00;16.33;;;7.50;;
1154;SDS011;566;48.414;9.118;2023-02-22T16:03:50;12.88;;;6.13;;
1154;SDS011;566;48.414;9.118;2023-02-22T16:08:54;12.85;;;7.30;;
1154;SDS011;566;48.414;9.118;2023-02-22T16:13:58;15.35;;;8.02;;
1154;SDS011;566;48.414;9.118;2023-02-22T16:16:29;18.25;;;8.80;;
1154;SDS011;566;48.414;9.118;2023-02-22T16:19:23;16.50;;;8.55;;
1154;SDS011;566;48.414;9.118;2023-02-22T16:22:00;16.95;;;9.23;;
1154;SDS011;566;48.414;9.118;2023-02-22T16:24:28;17.77;;;9.50;;
1154;SDS011;566;48.414;9.118;2023-02-22T16:27:03;21.00;;;11.80;;
1154;SDS011;566;48.414;9.118;2023-02-22T16:29:31;17.48;;;9.25;;
1154;SDS011;566;48.414;9.118;2023-02-22T16:31:57;15.98;;;9.07;;
1154;SDS011;566;48.414;9.118;2023-02-22T16:34:23;18.90;;;9.63;;
1154;SDS011;566;48.414;9.118;2023-02-22T16:36:48;19.48;;;9.73;;
1154;SDS011;566;48.414;9.118;2023-02-22T16:44:17;18.48;;;9.68;;
1154;SDS011;566;48.414;9.118;2023-02-22T16:46:43;17.85;;;9.88;;
1154;SDS011;566;48.414;9.118;2023-02-22T16:49:12;19.65;;;9.43;;
1154;SDS011;566;48.414;9.118;2023-02-22T16:51:48;22.10;;;11.45;;
1154;SDS011;566;48.414;9.118;2023-02-22T16:54:20;20.73;;;10.48;;
1154;SDS011;566;48.414;9.118;2023-02-22T16:56:56;23.40;;;13.32;;
1154;SDS011;566;48.414;9.118;2023-02-22T16:59:26;25.25;;;14.30;;
1154;SDS011;566;48.414;9.118;2023-02-22T17:01:52;23.25;;;13.57;;
1154;SDS011;566;48.414;9.118;2023-02-22T17:04:19;31.08;;;17.73;;
1154;SDS011;566;48.414;9.118;2023-02-22T17:06:46;28.20;;;15.93;;
1154;SDS011;566;48.414;9.118;2023-02-22T17:09:13;24.23;;;15.98;;
1154;SDS011;566;48.414;9.118;2023-02-22T17:11:43;32.47;;;18.15;;
1154;SDS011;566;48.414;9.118;2023-02-22T17:14:10;39.70;;;20.88;;
1154;SDS011;566;48.414;9.118;2023-02-22T17:16:41;44.25;;;23.98;;
1154;SDS011;566;48.414;9.118;2023-02-22T17:19:14;41.33;;;26.10;;
1154;SDS011;566;48.414;9.118;2023-02-22T17:21:43;37.00;;;22.48;;
1154;SDS011;566;48.414;9.118;2023-02-22T17:24:13;37.38;;;23.17;;
1154;SDS011;566;48.414;9.118;2023-02-22T17:26:40;28.13;;;16.83;;
1154;SDS011;566;48.414;9.118;2023-02-22T17:29:06;30.88;;;17.60;;
1154;SDS011;566;48.414;9.118;2023-02-22T17:31:32;29.00;;;18.63;;
1154;SDS011;566;48.414;9.118;2023-02-22T17:33:59;24.67;;;16.05;;
1154;SDS011;566;48.414;9.118;2023-02-22T17:36:27;31.38;;;16.48;;
1154;SDS011;566;48.414;9.118;2023-02-22T17:38:54;31.75;;;17.98;;
1154;SDS011;566;48.414;9.118;2023-02-22T17:41:19;26.73;;;16.25;;
1154;SDS011;566;48.414;9.118;2023-02-22T17:43:45;27.05;;;16.08;;
1154;SDS011;566;48.414;9.118;2023-02-22T17:46:11;24.88;;;15.98;;
1154;SDS011;566;48.414;9.118;2023-02-22T17:48:36;26.95;;;17.20;;
1154;SDS011;566;48.414;9.118;2023-02-22T17:51:04;25.25;;;16.20;;
1154;SDS011;566;48.414;9.118;2023-02-22T17:53:33;24.65;;;15.05;;
1154;SDS011;566;48.414;9.118;2023-02-22T17:56:03;26.70;;;15.40;;
1154;SDS011;566;48.414;9.118;2023-02-22T17:58:34;25.38;;;16.35;;
1154;SDS011;566;48.414;9.118;2023-02-22T18:01:00;25.98;;;16.42;;
1154;SDS011;566;48.414;9.118;2023-02-22T18:03:26;27.55;;;16.90;;